Aeroporto :
LOGIN :

Iscrizione | Disclaimer

   EN    FR    IT 

 










Sommario :    VFR   VFR Marginale   IFR   IFR Intensivo   IFR Molto Intensivo
Visibilità : 
Base nubi : 
>= 8 km
>= 3000ft
5 / 8 km
1000 / 3000 ft
1500m / 5 km
500 / 1000 ft
800 / 1500m
200 / 500 ft
< 800m
< 200 ft
Simboli :   Temporali  Nebbia  Neve Forte  Precipitazioni Forti  Vento > 20 kt
SIGMETs :   Varie  Temporali  Ghiacco  Turbolenza  Onda orograficha  Ceneri Vulcaniche






- Altitudine del aeroporto : 157 ft
- Codice IATA : LIL


LFQQ - Lille Lesquin

ULTIMO METAR :
  • 251930Z AUTO 22014KT 9999 OVC016 14/11 Q1018 NOSIG

METARs OBSOLETI :
  • 251900Z AUTO 22013KT 9999 BKN018 OVC026 15/11 Q1018 NOSIG
  • 251830Z AUTO 23013KT 9999 BKN018 BKN028 OVC041 14/11 Q1018 NOSIG
  • 251800Z AUTO 23015KT 200V260 9999 BKN019 BKN025 BKN033 14/11 Q1017 NOSIG
  • 251730Z AUTO 22014KT 9999 BKN027 BKN034 BKN041 15/10 Q1017 NOSIG
  • 251700Z AUTO 23014KT 9999 FEW029 BKN038 OVC049 16/10 Q1017 NOSIG

TAF TAF LFQQ
Valido dal 25 a 18 ore il 27 a 00 ore UTC


251700Z 2518/2624 24015KT 9999 OVC030
TEMPO 2600/2606 3000 DZ OVC007
TEMPO 2612/2620 24015G25KT
ATIS : +33 3 20 16 19 54



MetMap, La meteo Aeronautica in un colpo d'occhio ! - Copyright ORBIFLY Dicembre 2007 - Disclaimer

ORBIFLY MET'MAP TEAM :

Programmazione e sviluppo : Alexandra Zaïnal
Concezione : Baudouin d'Aumeries
Supporto tecnico e logistico : Manuel Goepfert
Aiuto : Marc-Olivier Méhu
Aiuto per la traduzione : Arnaldo La Scala

Contatto : metmap@orbifly.com




FONTI E CREDITI :

   NOAA